KIRS/IRS METAR and TAF weather

Enter ICAO airport designator
Station Type Date Time Source
KIRS METAR 2020/02/19 14:35 UTC NOAA

KIRS 191435Z AUTO 32009KT 10SM CLR M05/M10 A3053 RMK AO2 T10491102


Station Type Date Time Source
KIRS Decoded METAR 2020/02/19 14:35 UTC NOAA

Sturgis, Kirsch Municipal Airport, MI, United States (KIRS) 41-48-46N 085-26-21W
Feb 19, 2020 - 09:35 AM EST / 2020.02.19 1435 UTC
Wind: from the NW (320 degrees) at 10 MPH (9 KT):0
Visibility: 10 mile(s):0
Sky conditions: clear
Temperature: 23.2 F (-4.9 C)
Windchill: 12 F (-11 C):1
Dew Point: 13.6 F (-10.2 C)
Relative Humidity: 66%
Pressure (altimeter): 30.53 in. Hg (1033 hPa)
ob: KIRS 191435Z AUTO 32009KT 10SM CLR M05/M10 A3053 RMK AO2 T10491102
cycle: 14

Station Type Date Time Source
KIRS TAF UTC NOAA

Error!

Example: see airport list